Friendly, West Virginia
Current Conditions -  °F | °C
As of 8:53 PM on Thursday 20 Nov 2014 (Local Time) from KPKB Reporting Station
Clear Clear  
Wind Chill: 21°   Ceiling: Unl
Heat Index: 26°   Visibility: 10mi
Dew Point: 13°   Wind: 5mph
Humidity: 58%   Direction: 270°W
Pressure: 30.19"   Gusts: NA
Location:  39.52°N, 81.06°W
Report Text: KPKB 210153Z 27004KT 10SM CLR M03/M11 A3019 RMK AO2 SLP234 T10331106
Loading
Personal Weather Stations






























Interactive Weather Map New forecast layout! Learn more

10-Day Weather Forecast

Advertisements
Track Severe Weather on mobile